Time;durP1;ratioP1;P1;durP2;ratioP2;P2;SDS_P1;SDS_P2;PMS_P1;PMS_P2;Temp;Humidity;BMP_temperature;BMP_pressure;BME280_temperature;BME280_humidity;BME280_pressure;Samples;Min_cycle;Max_cycle;Signal;HPM_P1;HPM_P2
2023/08/04 00:00:11;;;;;;;3.60;2.55;;;;;;;;;;9909385;28;20182;-74
2023/08/04 00:05:05;;;;;;;3.03;2.42;;;;;;;;;;9909595;28;20051;-76
2023/08/04 00:09:57;;;;;;;4.68;2.38;;;;;;;;;;9944662;28;20461;-76
2023/08/04 00:14:49;;;;;;;1.80;1.70;;;;;;;;;;9917476;28;20049;-76
2023/08/04 00:19:41;;;;;;;2.00;1.88;;;;;;;;;;9906756;28;20036;-77
2023/08/04 00:24:33;;;;;;;4.32;2.05;;;;;;;;;;9908149;28;20544;-77
2023/08/04 00:29:25;;;;;;;2.58;2.38;;;;;;;;;;9909304;28;20355;-76
2023/08/04 00:34:17;;;;;;;2.75;1.75;;;;;;;;;;9907787;28;20051;-75
2023/08/04 00:39:09;;;;;;;3.22;2.13;;;;;;;;;;9905376;28;20138;-77
2023/08/04 00:44:02;;;;;;;3.28;1.73;;;;;;;;;;9908980;28;20425;-76
2023/08/04 00:48:54;;;;;;;3.75;1.65;;;;;;;;;;9908662;28;20410;-76
2023/08/04 00:53:46;;;;;;;2.33;1.45;;;;;;;;;;9908912;28;20043;-76
2023/08/04 00:58:37;;;;;;;2.78;2.17;;;;;;;;;;9909589;28;20066;-76
2023/08/04 01:03:29;;;;;;;2.10;1.52;;;;;;;;;;9904739;28;20477;-76
2023/08/04 01:08:23;;;;;;;2.90;1.52;;;;;;;;;;9908198;28;20043;-76
2023/08/04 01:13:20;;;;;;;1.80;1.40;;;;;;;;;;9907610;28;20058;-74
2023/08/04 01:18:12;;;;;;;6.90;1.58;;;;;;;;;;9922144;28;20076;-76
2023/08/04 01:23:04;;;;;;;4.80;1.60;;;;;;;;;;9906294;28;20043;-76
2023/08/04 01:27:58;;;;;;;3.47;1.52;;;;;;;;;;9908024;28;20043;-76
2023/08/04 01:32:50;;;;;;;2.00;1.48;;;;;;;;;;9905786;28;20071;-76
2023/08/04 01:37:43;;;;;;;4.18;1.40;;;;;;;;;;9906419;28;20154;-75
2023/08/04 01:42:35;;;;;;;2.40;1.50;;;;;;;;;;9907572;28;20046;-76
2023/08/04 01:47:27;;;;;;;2.50;1.30;;;;;;;;;;9908997;28;20133;-76
2023/08/04 01:52:21;;;;;;;6.78;1.80;;;;;;;;;;9907049;28;20117;-76
2023/08/04 01:57:12;;;;;;;4.07;1.55;;;;;;;;;;9906379;28;20071;-75
2023/08/04 02:02:05;;;;;;;5.50;1.30;;;;;;;;;;9906188;28;20047;-75
2023/08/04 02:06:56;;;;;;;4.10;1.60;;;;;;;;;;9905194;28;20078;-76
2023/08/04 02:11:48;;;;;;;2.47;1.42;;;;;;;;;;9906381;28;20359;-76
2023/08/04 02:16:41;;;;;;;2.65;1.50;;;;;;;;;;9907399;28;20043;-75
2023/08/04 02:21:33;;;;;;;5.40;1.67;;;;;;;;;;9904858;28;20039;-76
2023/08/04 02:26:25;;;;;;;3.55;1.30;;;;;;;;;;9907046;28;20199;-76
2023/08/04 02:31:18;;;;;;;2.17;1.27;;;;;;;;;;9906647;28;20126;-76
2023/08/04 02:36:10;;;;;;;3.90;1.55;;;;;;;;;;9906288;28;20125;-76
2023/08/04 02:41:02;;;;;;;3.38;1.60;;;;;;;;;;9907668;28;20082;-76
2023/08/04 02:45:54;;;;;;;2.83;1.85;;;;;;;;;;9905275;28;20102;-76
2023/08/04 02:50:46;;;;;;;3.60;1.50;;;;;;;;;;9905675;28;20110;-76
2023/08/04 02:55:38;;;;;;;2.30;1.23;;;;;;;;;;9908211;28;20122;-76
2023/08/04 03:00:30;;;;;;;2.75;1.30;;;;;;;;;;9912637;28;20044;-76
2023/08/04 03:05:23;;;;;;;1.95;1.52;;;;;;;;;;9912119;28;20152;-76
2023/08/04 03:10:14;;;;;;;6.28;1.58;;;;;;;;;;9913657;28;20047;-76
2023/08/04 03:15:07;;;;;;;2.38;1.48;;;;;;;;;;9912062;28;20051;-76
2023/08/04 03:19:59;;;;;;;4.18;1.33;;;;;;;;;;9911355;28;20470;-76
2023/08/04 03:24:50;;;;;;;3.58;1.40;;;;;;;;;;9895100;28;20043;-75
2023/08/04 03:29:42;;;;;;;2.10;1.23;;;;;;;;;;9911037;28;20105;-75
2023/08/04 03:34:34;;;;;;;3.05;1.50;;;;;;;;;;9910296;28;20051;-75
2023/08/04 03:39:28;;;;;;;4.97;1.60;;;;;;;;;;9912491;28;20710;-74
2023/08/04 03:44:19;;;;;;;7.13;2.03;;;;;;;;;;9911791;28;20377;-74
2023/08/04 03:49:11;;;;;;;2.55;1.60;;;;;;;;;;9910610;28;20043;-75
2023/08/04 03:54:04;;;;;;;2.38;1.30;;;;;;;;;;9910627;28;20106;-75
2023/08/04 03:58:56;;;;;;;2.20;1.08;;;;;;;;;;9911866;28;20134;-75
2023/08/04 04:03:48;;;;;;;4.32;1.70;;;;;;;;;;9910649;28;20481;-75
2023/08/04 04:08:40;;;;;;;2.10;1.60;;;;;;;;;;9910977;28;20050;-76
2023/08/04 04:13:32;;;;;;;3.08;1.10;;;;;;;;;;9890309;28;20098;-75
2023/08/04 04:18:24;;;;;;;3.25;1.60;;;;;;;;;;9888356;28;20412;-75
2023/08/04 04:23:16;;;;;;;4.45;1.98;;;;;;;;;;9908470;28;20051;-76
2023/08/04 04:28:08;;;;;;;3.72;1.67;;;;;;;;;;9908560;28;20051;-76
2023/08/04 04:33:00;;;;;;;5.97;2.22;;;;;;;;;;9890748;28;20042;-75
2023/08/04 04:37:51;;;;;;;4.97;1.38;;;;;;;;;;9870449;29;20405;-76
2023/08/04 04:42:43;;;;;;;2.38;1.20;;;;;;;;;;9895613;28;20110;-74
2023/08/04 04:47:35;;;;;;;3.10;1.40;;;;;;;;;;9902927;28;20078;-76
2023/08/04 04:52:37;;;;;;;5.38;1.50;;;;;;;;;;9904401;28;20386;-75
2023/08/04 04:57:29;;;;;;;3.03;1.70;;;;;;;;;;9908591;28;20051;-76
2023/08/04 05:02:21;;;;;;;2.00;1.25;;;;;;;;;;9904187;28;20106;-76
2023/08/04 05:07:13;;;;;;;3.75;1.80;;;;;;;;;;9904343;28;20056;-74
2023/08/04 05:12:08;;;;;;;3.28;1.27;;;;;;;;;;9906463;28;20465;-76
2023/08/04 05:17:00;;;;;;;6.22;1.23;;;;;;;;;;9904711;28;20058;-76
2023/08/04 05:21:52;;;;;;;2.80;1.75;;;;;;;;;;9904850;28;20183;-76
2023/08/04 05:26:44;;;;;;;4.40;1.70;;;;;;;;;;9909116;28;20047;-75
2023/08/04 05:31:36;;;;;;;4.43;1.48;;;;;;;;;;9876836;28;20482;-76
2023/08/04 05:36:28;;;;;;;2.47;1.45;;;;;;;;;;9880313;28;20040;-76
2023/08/04 05:41:20;;;;;;;6.40;2.42;;;;;;;;;;9874539;28;20047;-70
2023/08/04 05:46:15;;;;;;;3.40;1.35;;;;;;;;;;9905976;28;20070;-72
2023/08/04 05:51:07;;;;;;;4.03;1.50;;;;;;;;;;9905125;28;20055;-71
2023/08/04 05:55:59;;;;;;;2.53;1.30;;;;;;;;;;9887373;28;20154;-71
2023/08/04 06:00:51;;;;;;;3.20;1.35;;;;;;;;;;9899850;28;20355;-72
2023/08/04 06:05:43;;;;;;;3.33;1.65;;;;;;;;;;9905467;28;20084;-71
2023/08/04 06:10:35;;;;;;;7.15;1.90;;;;;;;;;;9889027;28;20044;-71
2023/08/04 06:15:27;;;;;;;3.58;1.48;;;;;;;;;;9891118;28;20054;-71
2023/08/04 06:20:19;;;;;;;4.63;1.55;;;;;;;;;;9860952;28;20043;-69
2023/08/04 06:25:11;;;;;;;5.40;1.70;;;;;;;;;;9903238;28;20682;-70
2023/08/04 06:30:03;;;;;;;3.38;1.30;;;;;;;;;;9904850;28;20047;-70
2023/08/04 06:34:55;;;;;;;5.25;1.23;;;;;;;;;;9904790;28;20051;-71
2023/08/04 06:39:47;;;;;;;2.72;1.35;;;;;;;;;;9906874;28;20499;-70
2023/08/04 06:44:39;;;;;;;3.58;1.40;;;;;;;;;;9910016;28;20473;-71
2023/08/04 06:49:31;;;;;;;2.78;1.73;;;;;;;;;;9911370;28;20462;-70
2023/08/04 06:54:23;;;;;;;3.50;1.92;;;;;;;;;;9911525;28;20055;-71
2023/08/04 06:59:15;;;;;;;2.67;1.10;;;;;;;;;;9910730;28;20129;-70
2023/08/04 07:04:06;;;;;;;3.78;1.23;;;;;;;;;;9909859;28;20395;-70
2023/08/04 07:08:58;;;;;;;2.67;1.30;;;;;;;;;;9910676;28;20094;-70
2023/08/04 07:13:50;;;;;;;2.22;1.25;;;;;;;;;;9910565;28;20043;-70
2023/08/04 07:18:42;;;;;;;10.40;2.28;;;;;;;;;;9909793;28;20043;-71
2023/08/04 07:23:34;;;;;;;14.98;1.80;;;;;;;;;;9909778;28;20103;-69
2023/08/04 07:28:26;;;;;;;3.25;1.40;;;;;;;;;;9909979;28;20047;-69
2023/08/04 07:33:18;;;;;;;5.00;1.77;;;;;;;;;;9909050;28;20469;-71
2023/08/04 07:38:10;;;;;;;3.83;2.28;;;;;;;;;;9904283;28;20675;-71
2023/08/04 07:43:05;;;;;;;4.35;1.77;;;;;;;;;;9910247;28;20725;-69
2023/08/04 07:47:56;;;;;;;7.75;2.33;;;;;;;;;;9906289;28;20137;-70
2023/08/04 07:52:48;;;;;;;8.82;1.75;;;;;;;;;;9907869;28;20090;-70
2023/08/04 07:57:40;;;;;;;8.23;2.08;;;;;;;;;;9905945;28;20062;-70
2023/08/04 08:02:32;;;;;;;3.00;1.83;;;;;;;;;;9908848;28;20047;-70
2023/08/04 08:07:24;;;;;;;6.53;1.45;;;;;;;;;;9908349;28;20083;-71
2023/08/04 08:12:34;;;;;;;4.07;2.28;;;;;;;;;;9883005;28;20145;-70
2023/08/04 08:17:26;;;;;;;11.63;2.00;;;;;;;;;;9906285;28;20413;-70
2023/08/04 08:22:18;;;;;;;3.08;1.35;;;;;;;;;;9906571;28;20047;-70
2023/08/04 08:27:10;;;;;;;8.10;1.80;;;;;;;;;;9906012;28;20098;-70
2023/08/04 08:32:02;;;;;;;4.60;1.88;;;;;;;;;;9907754;28;20062;-70
2023/08/04 08:36:54;;;;;;;4.68;2.40;;;;;;;;;;9910504;28;20047;-70
2023/08/04 08:41:46;;;;;;;2.20;1.48;;;;;;;;;;9908380;28;20066;-70
2023/08/04 08:46:38;;;;;;;6.32;1.30;;;;;;;;;;9912010;28;20047;-70
2023/08/04 08:51:31;;;;;;;4.60;1.42;;;;;;;;;;9902601;28;20058;-70
2023/08/04 08:56:25;;;;;;;3.70;1.70;;;;;;;;;;9892630;28;20035;-70
2023/08/04 09:01:17;;;;;;;5.20;3.00;;;;;;;;;;9900257;28;20045;-70
2023/08/04 09:06:10;;;;;;;5.65;2.00;;;;;;;;;;9907777;28;20055;-73
2023/08/04 09:11:03;;;;;;;9.27;1.63;;;;;;;;;;9883678;28;20043;-72
2023/08/04 09:15:58;;;;;;;2.67;1.48;;;;;;;;;;9883760;28;20048;-73
2023/08/04 09:21:00;;;;;;;3.08;1.30;;;;;;;;;;9881520;28;20142;-73
2023/08/04 09:25:53;;;;;;;4.68;1.58;;;;;;;;;;9891606;29;20405;-72
2023/08/04 09:31:01;;;;;;;4.10;1.38;;;;;;;;;;9906065;28;20077;-72
2023/08/04 09:36:07;;;;;;;4.63;2.05;;;;;;;;;;9902890;28;20042;-71
2023/08/04 09:41:05;;;;;;;3.38;1.38;;;;;;;;;;9904257;28;20661;-72
2023/08/04 09:45:58;;;;;;;2.60;1.38;;;;;;;;;;9902940;28;20043;-72
2023/08/04 09:50:50;;;;;;;7.43;2.17;;;;;;;;;;9901928;28;20126;-73
2023/08/04 09:55:43;;;;;;;5.10;1.80;;;;;;;;;;9900431;28;20047;-73
2023/08/04 10:00:35;;;;;;;7.68;1.77;;;;;;;;;;9894924;28;20075;-72
2023/08/04 10:05:27;;;;;;;7.63;2.38;;;;;;;;;;9889961;28;20385;-71
2023/08/04 10:10:19;;;;;;;14.55;3.25;;;;;;;;;;9908194;28;20417;-72
2023/08/04 10:15:11;;;;;;;27.73;3.20;;;;;;;;;;9887388;28;20047;-72
2023/08/04 10:20:05;;;;;;;8.02;2.10;;;;;;;;;;9905348;28;20053;-72
2023/08/04 10:24:57;;;;;;;9.85;3.20;;;;;;;;;;9906180;28;20083;-72
2023/08/04 10:30:13;;;;;;;9.20;3.72;;;;;;;;;;9871337;28;20488;-72
2023/08/04 10:35:19;;;;;;;4.45;2.15;;;;;;;;;;9900186;28;20086;-72
2023/08/04 10:40:12;;;;;;;6.75;2.55;;;;;;;;;;9903951;28;20497;-72
2023/08/04 10:45:07;;;;;;;10.95;4.60;;;;;;;;;;9907680;28;20472;-72
2023/08/04 10:50:00;;;;;;;10.50;3.05;;;;;;;;;;9906418;28;20043;-72
2023/08/04 10:54:52;;;;;;;7.07;2.10;;;;;;;;;;9910053;28;20510;-72
2023/08/04 10:59:44;;;;;;;8.70;2.58;;;;;;;;;;9909814;28;20051;-72
2023/08/04 11:04:37;;;;;;;10.60;2.70;;;;;;;;;;9907767;28;20397;-71
2023/08/04 11:09:29;;;;;;;8.50;2.70;;;;;;;;;;9910137;28;20059;-71
2023/08/04 11:14:21;;;;;;;7.13;2.58;;;;;;;;;;9890716;28;20062;-71
2023/08/04 11:19:13;;;;;;;13.27;2.63;;;;;;;;;;9900208;28;20135;-71
2023/08/04 11:24:05;;;;;;;11.65;2.28;;;;;;;;;;9907150;28;20098;-71
2023/08/04 11:28:58;;;;;;;8.18;2.65;;;;;;;;;;9907732;28;20097;-71
2023/08/04 11:33:51;;;;;;;6.45;2.10;;;;;;;;;;9908449;28;20047;-71
2023/08/04 11:38:43;;;;;;;9.05;2.42;;;;;;;;;;9868648;28;1150549;-71
2023/08/04 11:43:35;;;;;;;7.43;2.28;;;;;;;;;;9910152;28;20062;-70
2023/08/04 11:48:27;;;;;;;6.80;2.50;;;;;;;;;;9899597;28;20386;-71
2023/08/04 11:53:20;;;;;;;6.82;2.00;;;;;;;;;;9907013;28;20462;-71
2023/08/04 11:58:12;;;;;;;10.85;2.97;;;;;;;;;;9907788;28;20071;-70
2023/08/04 12:03:04;;;;;;;11.38;2.28;;;;;;;;;;9908962;28;20047;-69
2023/08/04 12:08:11;;;;;;;7.03;2.25;;;;;;;;;;9906153;28;20057;-69
2023/08/04 12:13:02;;;;;;;6.25;2.40;;;;;;;;;;9895921;28;20051;-69
2023/08/04 12:17:54;;;;;;;7.85;2.03;;;;;;;;;;9897022;28;20055;-68
2023/08/04 12:22:47;;;;;;;7.20;2.42;;;;;;;;;;9885857;28;20050;-70
2023/08/04 12:27:40;;;;;;;10.15;2.60;;;;;;;;;;9905516;28;20055;-82
2023/08/04 12:32:32;;;;;;;4.10;2.10;;;;;;;;;;9906499;28;20055;-83
2023/08/04 12:37:27;;;;;;;20.63;3.83;;;;;;;;;;9907312;28;20043;-69
2023/08/04 12:42:19;;;;;;;11.48;3.10;;;;;;;;;;9907334;28;20044;-69
2023/08/04 12:47:11;;;;;;;8.70;2.30;;;;;;;;;;9899434;28;20079;-71
2023/08/04 12:52:03;;;;;;;5.95;1.88;;;;;;;;;;9894780;28;20481;-69
2023/08/04 12:56:55;;;;;;;7.55;2.80;;;;;;;;;;9882145;28;20051;-69
2023/08/04 13:01:47;;;;;;;12.57;3.63;;;;;;;;;;9905954;28;20055;-69
2023/08/04 13:06:39;;;;;;;9.25;3.03;;;;;;;;;;9906327;28;20047;-68
2023/08/04 13:11:31;;;;;;;11.93;2.67;;;;;;;;;;9923166;28;20103;-69
2023/08/04 13:16:23;;;;;;;9.70;2.85;;;;;;;;;;9894656;28;20047;-69
2023/08/04 13:21:15;;;;;;;8.27;2.08;;;;;;;;;;9896554;28;20099;-69
2023/08/04 13:26:08;;;;;;;4.35;1.92;;;;;;;;;;9889208;28;20051;-69
2023/08/04 13:31:02;;;;;;;9.02;1.92;;;;;;;;;;9889396;28;20039;-68
2023/08/04 13:35:54;;;;;;;5.22;1.90;;;;;;;;;;9892204;28;20110;-69
2023/08/04 13:40:46;;;;;;;5.68;2.72;;;;;;;;;;9893118;28;20489;-70
2023/08/04 13:45:37;;;;;;;7.95;2.28;;;;;;;;;;9903735;28;20066;-69
2023/08/04 13:50:29;;;;;;;4.53;1.90;;;;;;;;;;9869338;29;20052;-69
2023/08/04 13:55:21;;;;;;;7.88;2.17;;;;;;;;;;9931742;28;20137;-69
2023/08/04 14:00:13;;;;;;;7.55;2.80;;;;;;;;;;9931258;28;20047;-68
2023/08/04 14:05:06;;;;;;;6.18;2.53;;;;;;;;;;9905390;28;20054;-69
2023/08/04 14:09:58;;;;;;;11.63;2.97;;;;;;;;;;9905842;28;20048;-69
2023/08/04 14:14:53;;;;;;;6.80;2.58;;;;;;;;;;9899318;28;20071;-69
2023/08/04 14:19:46;;;;;;;5.22;1.80;;;;;;;;;;9903058;28;20085;-70
2023/08/04 14:24:38;;;;;;;5.93;2.05;;;;;;;;;;9887911;28;20048;-69
2023/08/04 14:29:30;;;;;;;7.40;2.08;;;;;;;;;;9898012;28;20102;-68
2023/08/04 14:34:21;;;;;;;7.15;2.38;;;;;;;;;;9916847;28;20584;-80
2023/08/04 14:39:13;;;;;;;6.35;2.63;;;;;;;;;;9905228;28;20134;-79
2023/08/04 14:44:05;;;;;;;6.75;2.35;;;;;;;;;;9899894;28;20039;-78
2023/08/04 14:48:57;;;;;;;4.60;1.50;;;;;;;;;;9898462;28;20105;-78
2023/08/04 14:53:50;;;;;;;6.90;2.30;;;;;;;;;;9905183;28;20081;-78
2023/08/04 14:58:42;;;;;;;5.15;1.85;;;;;;;;;;9913185;28;20051;-78
2023/08/04 15:03:37;;;;;;;11.80;2.83;;;;;;;;;;9914888;28;20537;-80
2023/08/04 15:08:29;;;;;;;9.13;2.42;;;;;;;;;;9926739;28;20069;-80
2023/08/04 15:13:21;;;;;;;8.15;1.90;;;;;;;;;;9930843;28;20054;-80
2023/08/04 15:18:13;;;;;;;5.53;2.00;;;;;;;;;;9909658;28;20477;-79
2023/08/04 15:23:05;;;;;;;8.30;2.28;;;;;;;;;;9908584;28;20110;-80
2023/08/04 15:27:58;;;;;;;7.10;4.63;;;;;;;;;;9902944;28;20138;-80
2023/08/04 15:32:52;;;;;;;8.50;3.17;;;;;;;;;;9912146;28;20044;-80
2023/08/04 15:37:44;;;;;;;4.50;1.98;;;;;;;;;;9913366;28;20093;-79
2023/08/04 15:42:37;;;;;;;6.10;2.00;;;;;;;;;;9914378;28;20150;-80
2023/08/04 15:47:29;;;;;;;5.95;2.00;;;;;;;;;;9912324;28;20389;-80
2023/08/04 15:52:21;;;;;;;6.18;2.40;;;;;;;;;;9913033;28;20066;-74
2023/08/04 15:57:13;;;;;;;7.15;2.38;;;;;;;;;;9886553;28;20435;-75
2023/08/04 16:02:05;;;;;;;6.90;2.40;;;;;;;;;;9908921;28;20102;-76
2023/08/04 16:06:57;;;;;;;10.70;2.05;;;;;;;;;;9910220;28;20394;-76
2023/08/04 16:11:49;;;;;;;7.07;1.92;;;;;;;;;;9928946;28;20043;-76
2023/08/04 16:16:41;;;;;;;6.63;2.53;;;;;;;;;;9949387;28;20043;-76
2023/08/04 16:21:33;;;;;;;6.93;2.00;;;;;;;;;;9947848;28;20054;-76
2023/08/04 16:26:25;;;;;;;5.05;1.83;;;;;;;;;;9919082;28;20047;-77
2023/08/04 16:31:17;;;;;;;5.03;1.77;;;;;;;;;;9906005;28;20054;-76
2023/08/04 16:36:09;;;;;;;7.53;2.10;;;;;;;;;;9910967;28;20046;-76
2023/08/04 16:41:00;;;;;;;9.02;2.33;;;;;;;;;;9908788;28;20393;-75
2023/08/04 16:45:53;;;;;;;7.20;2.47;;;;;;;;;;9904155;28;20047;-72
2023/08/04 16:50:45;;;;;;;4.13;1.75;;;;;;;;;;9902620;28;20055;-72
2023/08/04 16:55:37;;;;;;;6.53;2.42;;;;;;;;;;9897765;28;20048;-73
2023/08/04 17:00:29;;;;;;;2.90;1.40;;;;;;;;;;9893534;28;20051;-72
2023/08/04 17:05:21;;;;;;;3.90;1.85;;;;;;;;;;9881639;28;20480;-72
2023/08/04 17:10:13;;;;;;;6.05;1.95;;;;;;;;;;9902046;28;20432;-74
2023/08/04 17:15:06;;;;;;;5.65;1.90;;;;;;;;;;9893000;28;20082;-75
2023/08/04 17:19:58;;;;;;;3.28;1.17;;;;;;;;;;9893023;28;20430;-74
2023/08/04 17:54:23;;;;;;;3.63;1.52;;;;;;;;;;10104869;28;20435;-71
2023/08/04 17:59:15;;;;;;;3.75;1.20;;;;;;;;;;10128897;28;20063;-71
2023/08/04 18:04:11;;;;;;;1.92;1.60;;;;;;;;;;10120052;28;20057;-72
2023/08/04 18:09:04;;;;;;;4.03;1.70;;;;;;;;;;10098067;28;20046;-73
2023/08/04 18:13:56;;;;;;;5.45;1.70;;;;;;;;;;10076465;28;20181;-72
2023/08/04 18:18:48;;;;;;;4.38;1.90;;;;;;;;;;10101321;28;20051;-72
2023/08/04 18:23:39;;;;;;;2.67;1.75;;;;;;;;;;10098435;28;20061;-71
2023/08/04 18:28:31;;;;;;;2.65;2.05;;;;;;;;;;10070739;28;20042;-73
2023/08/04 18:33:23;;;;;;;1.85;1.70;;;;;;;;;;10113053;28;20401;-74
2023/08/04 18:38:21;;;;;;;2.17;1.63;;;;;;;;;;10058035;28;20041;-73
2023/08/04 18:43:13;;;;;;;3.08;1.83;;;;;;;;;;10060926;28;20049;-71
2023/08/04 18:48:05;;;;;;;1.90;1.45;;;;;;;;;;10084127;28;20045;-74
2023/08/04 18:52:57;;;;;;;2.88;2.10;;;;;;;;;;10079342;28;20076;-73
2023/08/04 18:57:48;;;;;;;3.65;1.73;;;;;;;;;;10075079;28;20057;-72
2023/08/04 19:02:40;;;;;;;3.58;1.65;;;;;;;;;;10058546;28;20050;-73
2023/08/04 19:07:32;;;;;;;4.28;1.70;;;;;;;;;;10051963;28;20041;-74
2023/08/04 19:12:24;;;;;;;2.58;1.95;;;;;;;;;;10049738;28;20052;-73
2023/08/04 19:17:16;;;;;;;1.35;1.20;;;;;;;;;;10042189;28;20104;-73
2023/08/04 19:22:08;;;;;;;5.70;1.50;;;;;;;;;;10067511;28;20128;-74
2023/08/04 19:27:00;;;;;;;3.53;1.88;;;;;;;;;;10048809;28;20137;-74
2023/08/04 19:31:52;;;;;;;5.03;1.50;;;;;;;;;;10049499;28;20042;-72
2023/08/04 19:36:44;;;;;;;5.78;1.20;;;;;;;;;;10059087;28;20542;-72
2023/08/04 19:41:36;;;;;;;4.00;1.92;;;;;;;;;;10065397;28;20058;-71
2023/08/04 19:46:28;;;;;;;1.75;1.23;;;;;;;;;;10063706;28;20144;-74
2023/08/04 19:51:20;;;;;;;2.00;1.48;;;;;;;;;;10050631;28;20136;-73
2023/08/04 19:56:12;;;;;;;4.18;1.98;;;;;;;;;;10066422;28;20486;-73
2023/08/04 20:01:08;;;;;;;1.88;1.38;;;;;;;;;;10052243;28;20060;-72
2023/08/04 20:06:00;;;;;;;2.75;1.58;;;;;;;;;;10058435;28;20041;-73
2023/08/04 20:11:06;;;;;;;1.67;1.27;;;;;;;;;;10052209;28;20079;-73
2023/08/04 20:16:16;;;;;;;2.60;1.70;;;;;;;;;;10023380;28;20057;-73
2023/08/04 20:21:12;;;;;;;3.58;1.42;;;;;;;;;;10036249;28;20537;-73
2023/08/04 20:26:06;;;;;;;2.13;1.35;;;;;;;;;;10050936;28;20419;-71
2023/08/04 20:31:00;;;;;;;2.10;1.38;;;;;;;;;;10029278;28;20033;-72
2023/08/04 20:36:00;;;;;;;2.60;1.65;;;;;;;;;;10076004;28;20056;-73
2023/08/04 20:41:05;;;;;;;4.13;2.00;;;;;;;;;;10068572;28;20042;-72
2023/08/04 20:45:57;;;;;;;3.13;1.83;;;;;;;;;;10044163;28;20042;-73
2023/08/04 20:50:50;;;;;;;3.97;2.67;;;;;;;;;;10054562;28;20057;-72
2023/08/04 20:55:45;;;;;;;2.40;2.20;;;;;;;;;;10064631;28;20046;-72
2023/08/04 21:00:37;;;;;;;4.03;2.08;;;;;;;;;;10061564;28;20041;-76
2023/08/04 21:05:30;;;;;;;3.55;2.17;;;;;;;;;;10058958;28;20095;-76
2023/08/04 21:10:22;;;;;;;3.47;2.03;;;;;;;;;;10060976;28;20472;-77
2023/08/04 21:15:14;;;;;;;3.05;2.17;;;;;;;;;;10074666;28;20048;-73
2023/08/04 21:20:06;;;;;;;3.17;1.45;;;;;;;;;;10050319;28;20543;-76
2023/08/04 21:24:58;;;;;;;2.17;1.60;;;;;;;;;;10064770;28;20041;-75
2023/08/04 21:29:50;;;;;;;4.32;1.85;;;;;;;;;;10067804;28;20131;-76
2023/08/04 21:34:42;;;;;;;3.83;2.05;;;;;;;;;;10074335;28;20045;-75
2023/08/04 21:39:34;;;;;;;7.70;2.63;;;;;;;;;;10064339;28;20037;-76
2023/08/04 21:44:26;;;;;;;5.38;2.38;;;;;;;;;;10059365;28;20543;-75
2023/08/04 21:49:18;;;;;;;5.60;2.20;;;;;;;;;;10049970;28;20427;-75
2023/08/04 21:54:10;;;;;;;4.13;2.38;;;;;;;;;;10035306;28;20432;-75
2023/08/04 21:59:02;;;;;;;2.00;1.90;;;;;;;;;;10066337;28;20167;-76
2023/08/04 22:03:54;;;;;;;10.90;2.47;;;;;;;;;;10054205;28;20097;-75
2023/08/04 22:08:46;;;;;;;7.97;1.77;;;;;;;;;;10061004;28;20079;-74
2023/08/04 22:13:39;;;;;;;5.50;2.22;;;;;;;;;;10063784;28;20049;-75
2023/08/04 22:18:31;;;;;;;2.83;1.60;;;;;;;;;;10062666;28;20148;-75
2023/08/04 22:23:23;;;;;;;3.30;2.00;;;;;;;;;;10064070;28;20458;-74
2023/08/04 22:28:15;;;;;;;1.90;1.80;;;;;;;;;;10062909;28;20080;-76
2023/08/04 22:33:07;;;;;;;3.78;1.88;;;;;;;;;;10060065;28;20145;-76
2023/08/04 22:37:59;;;;;;;4.28;2.08;;;;;;;;;;10048218;28;20045;-75
2023/08/04 22:42:51;;;;;;;6.18;1.63;;;;;;;;;;10080403;28;20444;-76
2023/08/04 22:47:43;;;;;;;2.13;1.90;;;;;;;;;;10079519;28;20037;-75
2023/08/04 22:52:34;;;;;;;3.03;1.88;;;;;;;;;;10071006;28;20136;-75
2023/08/04 22:57:27;;;;;;;3.88;1.88;;;;;;;;;;10070667;28;20121;-76
2023/08/04 23:02:19;;;;;;;2.97;2.47;;;;;;;;;;10058285;28;20503;-76
2023/08/04 23:07:11;;;;;;;4.85;2.50;;;;;;;;;;10071411;28;20041;-76
2023/08/04 23:12:03;;;;;;;4.13;3.03;;;;;;;;;;10069911;28;20045;-76
2023/08/04 23:16:55;;;;;;;6.50;2.90;;;;;;;;;;10070049;28;20045;-76
2023/08/04 23:21:47;;;;;;;4.78;3.35;;;;;;;;;;10067140;28;20068;-75
2023/08/04 23:26:39;;;;;;;3.13;2.70;;;;;;;;;;10066465;28;20117;-76
2023/08/04 23:31:30;;;;;;;3.10;2.50;;;;;;;;;;10064496;28;20065;-76
2023/08/04 23:36:22;;;;;;;4.43;2.25;;;;;;;;;;10057238;28;20472;-75
2023/08/04 23:41:14;;;;;;;3.75;2.08;;;;;;;;;;10058352;28;20069;-76
2023/08/04 23:46:06;;;;;;;6.28;2.78;;;;;;;;;;10066628;28;20080;-76
2023/08/04 23:50:58;;;;;;;2.83;2.00;;;;;;;;;;10061113;28;20054;-76
2023/08/04 23:55:50;;;;;;;4.20;1.85;;;;;;;;;;10063832;28;20053;-75
